Time;durP1;ratioP1;P1;durP2;ratioP2;P2;SDS_P1;SDS_P2;PMS_P1;PMS_P2;Temp;Humidity;BMP_temperature;BMP_pressure;BME280_temperature;BME280_humidity;BME280_pressure;Samples;Min_cycle;Max_cycle;Signal;HPM_P1;HPM_P2
2022/03/23 00:00:46;;;;;;;6.60;4.97;;;5.00;86.70;;;;;;5015763;28;20406;-68
2022/03/23 00:03:15;;;;;;;7.03;5.23;;;4.90;86.80;;;;;;5018556;28;20193;-69
2022/03/23 00:05:42;;;;;;;5.25;4.25;;;4.80;87.30;;;;;;5035155;28;20718;-69
2022/03/23 00:08:11;;;;;;;11.45;5.32;;;4.80;87.70;;;;;;5035176;28;20178;-69
2022/03/23 00:10:37;;;;;;;7.47;5.57;;;4.70;87.90;;;;;;5035496;28;20224;-69
2022/03/23 00:13:06;;;;;;;8.10;5.90;;;4.70;87.90;;;;;;5033778;28;20329;-70
2022/03/23 00:15:32;;;;;;;7.97;4.68;;;4.70;88.10;;;;;;5035399;28;20538;-68
2022/03/23 00:17:57;;;;;;;8.70;4.47;;;4.70;88.00;;;;;;5031260;28;20194;-69
2022/03/23 00:20:27;;;;;;;7.73;6.23;;;4.70;87.90;;;;;;5015387;28;20457;-68
2022/03/23 00:22:52;;;;;;;4.82;4.43;;;4.70;87.50;;;;;;5015035;28;20413;-68
2022/03/23 00:25:18;;;;;;;5.87;4.07;;;4.60;87.50;;;;;;5014841;28;20553;-68
2022/03/23 00:27:44;;;;;;;4.47;4.07;;;4.60;87.60;;;;;;5015021;28;20483;-68
2022/03/23 00:30:10;;;;;;;6.03;4.97;;;4.60;87.60;;;;;;5015133;28;20166;-69
2022/03/23 00:32:36;;;;;;;6.28;5.07;;;4.60;87.70;;;;;;5017300;28;20637;-70
2022/03/23 00:35:02;;;;;;;8.30;4.77;;;4.50;87.60;;;;;;5034144;28;20190;-69
2022/03/23 00:37:28;;;;;;;4.50;3.42;;;4.50;87.90;;;;;;5034529;28;20172;-69
2022/03/23 00:39:54;;;;;;;6.20;4.53;;;4.40;88.20;;;;;;5034536;28;20249;-68
2022/03/23 00:42:20;;;;;;;6.45;5.15;;;4.40;88.80;;;;;;5034534;28;20437;-68
2022/03/23 00:44:45;;;;;;;5.90;4.77;;;4.30;89.10;;;;;;5029555;28;20191;-70
2022/03/23 00:47:11;;;;;;;7.60;4.60;;;4.30;89.50;;;;;;5015093;28;20167;-69
2022/03/23 00:49:38;;;;;;;4.37;3.97;;;4.20;89.70;;;;;;5013916;28;20174;-69
2022/03/23 00:52:07;;;;;;;4.70;4.30;;;4.20;89.80;;;;;;5014466;28;20170;-69
2022/03/23 00:54:34;;;;;;;5.57;4.32;;;4.10;89.70;;;;;;5014042;28;20260;-69
2022/03/23 00:57:05;;;;;;;5.10;3.75;;;4.10;90.00;;;;;;5014780;28;20163;-68
2022/03/23 00:59:31;;;;;;;4.65;3.70;;;4.00;90.20;;;;;;5018405;28;20213;-69
2022/03/23 01:01:58;;;;;;;5.25;4.85;;;3.90;90.50;;;;;;5034034;28;20248;-69
2022/03/23 01:04:24;;;;;;;4.40;3.45;;;3.90;90.80;;;;;;5033619;28;20166;-69
2022/03/23 01:06:52;;;;;;;7.70;4.93;;;3.90;90.90;;;;;;5034178;28;20177;-68
2022/03/23 01:09:22;;;;;;;5.50;4.25;;;3.80;91.00;;;;;;5034001;28;20194;-68
2022/03/23 01:11:49;;;;;;;5.88;4.57;;;3.80;91.30;;;;;;5032226;28;20177;-68
2022/03/23 01:14:14;;;;;;;6.35;5.00;;;3.80;91.50;;;;;;5033370;28;20224;-68
2022/03/23 01:16:40;;;;;;;4.60;4.20;;;3.70;91.90;;;;;;5033840;28;20174;-68
2022/03/23 01:19:06;;;;;;;4.68;4.15;;;3.70;92.50;;;;;;5034217;28;20209;-69
2022/03/23 01:21:32;;;;;;;6.23;4.90;;;3.70;92.70;;;;;;5034009;28;20629;-69
2022/03/23 01:23:57;;;;;;;6.70;5.07;;;3.80;92.70;;;;;;5033285;28;20170;-69
2022/03/23 01:26:23;;;;;;;5.47;4.87;;;3.80;92.50;;;;;;5022465;28;20282;-69
2022/03/23 01:28:49;;;;;;;4.80;3.77;;;3.80;92.50;;;;;;5013994;28;20691;-69
2022/03/23 01:31:15;;;;;;;4.70;4.13;;;3.80;92.50;;;;;;5014061;28;20417;-69
2022/03/23 01:33:40;;;;;;;5.13;4.63;;;3.80;92.40;;;;;;5013390;28;20195;-69
2022/03/23 01:36:06;;;;;;;4.57;4.17;;;3.70;92.30;;;;;;5013668;28;20573;-69
2022/03/23 01:38:32;;;;;;;6.27;3.83;;;3.70;92.60;;;;;;5013995;28;20237;-69
2022/03/23 01:40:57;;;;;;;4.43;4.13;;;3.70;92.70;;;;;;5023022;28;20174;-69
2022/03/23 01:43:23;;;;;;;5.90;4.87;;;3.60;92.90;;;;;;5033137;28;20174;-69
2022/03/23 01:45:49;;;;;;;4.80;4.40;;;3.60;93.10;;;;;;5031694;28;20198;-68
2022/03/23 01:48:14;;;;;;;6.67;5.97;;;3.50;93.20;;;;;;5033430;28;20174;-68
2022/03/23 01:50:40;;;;;;;6.17;4.67;;;3.50;93.30;;;;;;5032232;28;20265;-68
2022/03/23 01:53:07;;;;;;;4.90;4.40;;;3.40;93.70;;;;;;5031614;28;20534;-71
2022/03/23 01:55:33;;;;;;;8.57;5.47;;;3.40;94.00;;;;;;5033179;28;20185;-69
2022/03/23 01:57:59;;;;;;;7.15;5.20;;;3.40;94.30;;;;;;5033209;28;20170;-69
2022/03/23 02:00:28;;;;;;;4.43;4.13;;;3.30;94.40;;;;;;5029648;28;20177;-70
2022/03/23 02:02:54;;;;;;;8.52;5.47;;;3.30;94.50;;;;;;5014368;28;20252;-70
2022/03/23 02:05:20;;;;;;;8.77;5.88;;;3.30;94.60;;;;;;5013270;28;20195;-68
2022/03/23 02:07:45;;;;;;;4.60;3.93;;;3.30;94.80;;;;;;5012128;28;20181;-69
2022/03/23 02:10:11;;;;;;;7.33;5.53;;;3.30;94.90;;;;;;5013604;28;20860;-68
2022/03/23 02:12:37;;;;;;;4.90;4.07;;;3.30;94.70;;;;;;5013146;28;20198;-68
2022/03/23 02:15:12;;;;;;;8.13;4.63;;;3.30;94.80;;;;;;5012940;28;20649;-68
2022/03/23 02:17:38;;;;;;;9.60;5.97;;;3.30;94.80;;;;;;5017354;28;20217;-69
2022/03/23 02:20:06;;;;;;;6.20;5.53;;;3.20;94.60;;;;;;5013586;28;20185;-69
2022/03/23 02:22:31;;;;;;;6.43;4.53;;;3.20;94.90;;;;;;5022843;28;20658;-68
2022/03/23 02:24:57;;;;;;;7.90;5.47;;;3.20;95.20;;;;;;5033055;28;20280;-69
2022/03/23 02:27:25;;;;;;;4.50;3.70;;;3.10;95.40;;;;;;5033045;28;20448;-68
2022/03/23 02:29:53;;;;;;;11.35;5.32;;;3.10;95.50;;;;;;5033074;28;20170;-70
2022/03/23 02:32:19;;;;;;;9.05;5.47;;;3.00;95.80;;;;;;5033246;28;20166;-69
2022/03/23 02:34:44;;;;;;;4.27;3.87;;;3.00;96.10;;;;;;5032656;28;20200;-70
2022/03/23 02:37:10;;;;;;;5.47;4.70;;;3.00;96.40;;;;;;5029676;28;20416;-68
2022/03/23 02:39:36;;;;;;;18.17;4.73;;;3.00;96.50;;;;;;5033074;28;20173;-69
2022/03/23 02:42:02;;;;;;;5.57;5.00;;;2.90;96.70;;;;;;5033021;28;20174;-69
2022/03/23 02:44:29;;;;;;;5.82;4.78;;;2.90;96.80;;;;;;5032450;28;20182;-68
2022/03/23 02:46:55;;;;;;;7.80;4.68;;;2.80;97.10;;;;;;5016885;28;20527;-69
2022/03/23 02:49:21;;;;;;;7.80;4.87;;;2.80;97.20;;;;;;5052056;28;20189;-69
2022/03/23 02:51:49;;;;;;;5.93;4.25;;;2.80;97.20;;;;;;5044393;28;20417;-69
2022/03/23 03:01:52;;;;;;;8.30;6.22;;;2.80;97.30;;;;;;5032901;28;20604;-68
2022/03/23 03:03:39;;;;;;;7.10;5.97;;;2.70;97.90;;;;;;5037800;28;20551;-70
2022/03/23 03:06:05;;;;;;;5.60;5.10;;;2.70;98.10;;;;;;5047149;28;20277;-68
2022/03/23 03:08:47;;;;;;;6.30;4.33;;;2.70;98.20;;;;;;5032779;28;20170;-68
2022/03/23 03:11:15;;;;;;;4.45;4.00;;;2.50;98.40;;;;;;5033012;28;20166;-67
2022/03/23 03:13:42;;;;;;;6.45;4.90;;;2.50;98.60;;;;;;5034452;28;20208;-70
2022/03/23 03:16:07;;;;;;;5.00;3.80;;;2.50;98.80;;;;;;5035682;28;20612;-69
2022/03/23 03:18:34;;;;;;;7.33;5.43;;;2.40;98.90;;;;;;5036144;28;20196;-69
2022/03/23 03:21:03;;;;;;;5.20;4.70;;;2.40;99.10;;;;;;5035393;28;20166;-69
2022/03/23 03:23:30;;;;;;;5.45;4.90;;;2.40;99.10;;;;;;5035621;28;20567;-69
2022/03/23 03:25:56;;;;;;;3.85;3.40;;;2.40;99.10;;;;;;5034593;28;20340;-68
2022/03/23 03:28:22;;;;;;;5.97;3.65;;;2.40;99.20;;;;;;5035936;28;20560;-67
2022/03/23 03:34:13;;;;;;;7.60;4.10;;;2.30;99.50;;;;;;5035493;28;20487;-68
2022/03/23 03:36:38;;;;;;;6.40;4.82;;;2.30;99.80;;;;;;5022942;28;20173;-69
2022/03/23 03:39:05;;;;;;;3.57;3.27;;;2.20;99.90;;;;;;5016125;28;20246;-69
2022/03/23 03:41:31;;;;;;;12.13;4.38;;;2.30;99.90;;;;;;5029653;28;20180;-69
2022/03/23 03:43:57;;;;;;;6.57;4.30;;;2.20;99.90;;;;;;5035469;28;20173;-69
2022/03/23 03:46:24;;;;;;;6.60;5.97;;;2.10;99.90;;;;;;5035910;28;20198;-69
2022/03/23 03:48:50;;;;;;;5.35;4.85;;;2.10;99.90;;;;;;5035991;28;20582;-69
2022/03/23 03:51:15;;;;;;;5.63;4.47;;;2.10;99.90;;;;;;5023454;28;20569;-69
2022/03/23 03:53:42;;;;;;;6.63;4.03;;;2.00;99.90;;;;;;5015560;28;20199;-69
2022/03/23 03:56:09;;;;;;;5.05;4.50;;;2.00;99.90;;;;;;5015705;28;20523;-69
2022/03/23 03:58:35;;;;;;;4.25;3.80;;;2.10;99.90;;;;;;5015911;28;20174;-68
2022/03/23 04:01:01;;;;;;;4.70;4.05;;;2.00;99.90;;;;;;5015781;28;20520;-69
2022/03/23 04:03:26;;;;;;;4.47;3.77;;;2.00;99.90;;;;;;5015053;28;20329;-69
2022/03/23 04:05:53;;;;;;;3.38;3.08;;;2.00;99.90;;;;;;5025697;28;20288;-69
2022/03/23 04:08:19;;;;;;;7.20;4.57;;;2.00;99.90;;;;;;5033572;28;20185;-69
2022/03/23 04:10:44;;;;;;;4.67;4.27;;;2.00;99.90;;;;;;5035373;28;20170;-68
2022/03/23 04:13:10;;;;;;;6.83;4.57;;;2.00;99.90;;;;;;5033226;28;20198;-69
2022/03/23 04:15:36;;;;;;;4.50;4.10;;;1.90;99.90;;;;;;5035060;28;20530;-69
2022/03/23 04:18:02;;;;;;;5.60;3.65;;;1.90;99.90;;;;;;5035069;28;20206;-68
2022/03/23 04:20:30;;;;;;;6.70;3.95;;;1.90;99.90;;;;;;5034983;28;20174;-69
2022/03/23 04:22:55;;;;;;;4.43;4.03;;;1.80;99.90;;;;;;5030549;28;20270;-68
2022/03/23 04:25:21;;;;;;;6.43;5.93;;;1.80;99.90;;;;;;5014853;28;20733;-69
2022/03/23 04:27:49;;;;;;;12.82;6.07;;;1.80;99.90;;;;;;5013986;28;20274;-69
2022/03/23 04:30:17;;;;;;;3.33;3.13;;;1.80;99.90;;;;;;5015016;28;20175;-70
2022/03/23 04:32:47;;;;;;;6.32;5.07;;;1.80;99.90;;;;;;5014827;28;20206;-72
2022/03/23 04:35:13;;;;;;;7.55;5.32;;;1.70;99.90;;;;;;5014738;28;20613;-68
2022/03/23 04:37:39;;;;;;;3.63;3.03;;;1.80;99.90;;;;;;5017089;28;20198;-69
2022/03/23 04:40:07;;;;;;;6.60;4.03;;;1.70;99.90;;;;;;5034719;28;20408;-69
2022/03/23 04:42:34;;;;;;;4.90;4.43;;;1.60;99.90;;;;;;5033487;28;20532;-69
2022/03/23 04:45:00;;;;;;;8.05;5.05;;;1.70;99.90;;;;;;5034043;28;20595;-68
2022/03/23 04:47:26;;;;;;;4.45;4.15;;;1.70;99.90;;;;;;5019142;28;20175;-68
2022/03/23 04:49:51;;;;;;;4.43;4.00;;;1.70;99.90;;;;;;5014703;28;20179;-68
2022/03/23 04:52:17;;;;;;;8.03;4.67;;;1.70;99.90;;;;;;5014607;28;20171;-68
2022/03/23 04:54:46;;;;;;;6.93;4.67;;;1.70;99.90;;;;;;5014177;28;20193;-68
2022/03/23 04:57:11;;;;;;;4.63;4.22;;;1.60;99.90;;;;;;5014460;28;20250;-69
2022/03/23 04:59:37;;;;;;;5.50;5.10;;;1.70;99.90;;;;;;5014570;28;20262;-68
2022/03/23 05:02:03;;;;;;;4.83;3.23;;;1.70;99.90;;;;;;5014538;28;20218;-69
2022/03/23 05:04:29;;;;;;;4.97;4.17;;;1.60;99.90;;;;;;5021348;28;20426;-70
2022/03/23 05:06:54;;;;;;;5.70;5.00;;;1.60;99.90;;;;;;5019577;28;20438;-68
2022/03/23 05:09:20;;;;;;;4.23;3.87;;;1.60;99.90;;;;;;5019223;28;20633;-70
2022/03/23 05:11:46;;;;;;;6.93;6.00;;;1.50;99.90;;;;;;5016699;28;20198;-69
2022/03/23 05:14:11;;;;;;;5.70;4.90;;;1.60;99.90;;;;;;5014112;28;20376;-69
2022/03/23 05:16:38;;;;;;;4.87;4.47;;;1.50;99.90;;;;;;5026694;28;20174;-70
2022/03/23 05:19:04;;;;;;;5.30;4.82;;;1.60;99.90;;;;;;5033985;28;20170;-69
2022/03/23 05:21:29;;;;;;;9.63;5.80;;;1.60;99.90;;;;;;5033938;28;20217;-69
2022/03/23 05:23:55;;;;;;;7.43;5.80;;;1.60;99.90;;;;;;5033453;28;20540;-69
2022/03/23 05:26:21;;;;;;;11.73;5.90;;;1.60;99.90;;;;;;5033837;28;20421;-69
2022/03/23 05:28:46;;;;;;;7.83;5.27;;;1.60;99.90;;;;;;5033770;28;20203;-69
2022/03/23 05:31:12;;;;;;;5.70;4.80;;;1.70;99.90;;;;;;5022071;28;20182;-69
2022/03/23 05:33:38;;;;;;;4.80;4.40;;;1.70;99.90;;;;;;5013456;28;20206;-69
2022/03/23 05:36:04;;;;;;;7.30;5.63;;;1.80;99.90;;;;;;5013307;28;20249;-69
2022/03/23 05:38:29;;;;;;;6.38;4.45;;;1.80;99.90;;;;;;5014017;28;20169;-69
2022/03/23 05:40:55;;;;;;;7.27;6.50;;;1.80;99.90;;;;;;5014123;28;20163;-69
2022/03/23 05:43:20;;;;;;;8.10;3.93;;;1.90;99.90;;;;;;5013605;28;20171;-69
2022/03/23 05:45:46;;;;;;;9.63;6.87;;;2.00;99.90;;;;;;5021902;28;20214;-69
2022/03/23 05:48:12;;;;;;;9.77;4.03;;;2.10;99.90;;;;;;5033516;28;20248;-69
2022/03/23 05:50:37;;;;;;;6.37;5.73;;;2.20;99.90;;;;;;5033454;28;20201;-69
2022/03/23 05:53:03;;;;;;;6.20;5.70;;;2.30;99.90;;;;;;5025680;28;20194;-69
2022/03/23 05:55:29;;;;;;;5.67;5.10;;;2.40;99.90;;;;;;5019954;28;20201;-71
2022/03/23 05:57:55;;;;;;;15.50;5.57;;;2.50;99.90;;;;;;5033088;28;20424;-70
2022/03/23 06:00:21;;;;;;;7.87;7.07;;;2.60;99.90;;;;;;5032459;28;20412;-70
2022/03/23 06:02:47;;;;;;;9.33;5.63;;;2.70;99.90;;;;;;5032909;28;20185;-69
2022/03/23 06:05:13;;;;;;;6.50;6.00;;;2.80;99.90;;;;;;5032840;28;20432;-68
2022/03/23 06:07:39;;;;;;;9.75;5.63;;;2.90;99.90;;;;;;5033173;28;20170;-68
2022/03/23 06:10:09;;;;;;;7.28;4.30;;;3.10;99.90;;;;;;5025308;28;20170;-70
2022/03/23 06:12:35;;;;;;;7.28;6.55;;;3.20;99.90;;;;;;5013568;28;20203;-69
2022/03/23 06:15:01;;;;;;;8.40;4.97;;;3.50;99.90;;;;;;5012909;28;20191;-69
2022/03/23 06:17:27;;;;;;;7.53;6.33;;;3.70;99.90;;;;;;5017229;28;20181;-70
2022/03/23 06:19:53;;;;;;;7.73;6.77;;;3.90;99.90;;;;;;5022891;28;20162;-69
2022/03/23 06:22:19;;;;;;;6.13;5.47;;;4.20;99.90;;;;;;5042077;28;20491;-74
2022/03/23 06:24:45;;;;;;;8.07;6.35;;;4.50;99.80;;;;;;5031138;28;20189;-70
2022/03/23 06:27:11;;;;;;;8.27;5.63;;;4.90;99.50;;;;;;5048052;28;20178;-70
2022/03/23 06:29:37;;;;;;;6.20;5.70;;;5.40;97.80;;;;;;5051595;28;20404;-69
2022/03/23 06:32:03;;;;;;;6.28;5.65;;;5.70;96.80;;;;;;5040375;28;20241;-68
2022/03/23 06:34:29;;;;;;;6.28;5.68;;;6.10;95.50;;;;;;5041830;28;20243;-68
2022/03/23 06:36:55;;;;;;;6.10;5.53;;;6.50;94.80;;;;;;5052689;28;20171;-68
2022/03/23 06:39:20;;;;;;;6.00;5.40;;;6.80;94.00;;;;;;5044596;28;20167;-71
2022/03/23 06:41:46;;;;;;;11.00;6.20;;;7.20;93.40;;;;;;5041199;28;20176;-68
2022/03/23 06:44:12;;;;;;;7.47;5.90;;;7.30;92.30;;;;;;5022749;28;20535;-67
2022/03/23 06:46:38;;;;;;;10.30;6.83;;;7.40;91.90;;;;;;5018931;28;20537;-71
2022/03/23 06:49:03;;;;;;;8.03;6.20;;;7.70;92.30;;;;;;5017192;28;20425;-70
2022/03/23 06:51:29;;;;;;;9.10;6.73;;;8.00;91.70;;;;;;5030828;28;20680;-70
2022/03/23 06:53:55;;;;;;;5.57;5.07;;;8.40;91.00;;;;;;5035745;28;20204;-70
2022/03/23 06:56:20;;;;;;;7.73;6.27;;;8.90;90.20;;;;;;5049370;28;20192;-67
2022/03/23 06:58:46;;;;;;;6.97;6.13;;;9.40;88.90;;;;;;5056598;28;20245;-67
2022/03/23 07:01:11;;;;;;;13.03;8.47;;;9.80;86.80;;;;;;5056207;28;20193;-67
2022/03/23 07:03:37;;;;;;;10.70;7.33;;;10.30;84.70;;;;;;5055882;28;20221;-67
2022/03/23 07:06:03;;;;;;;11.63;8.27;;;10.80;83.10;;;;;;5056121;28;20226;-67
2022/03/23 07:11:12;;;;;;;14.07;6.57;;;11.90;79.60;;;;;;5035960;28;20242;-68
2022/03/23 07:13:38;;;;;;;12.13;10.90;;;12.60;77.00;;;;;;5023570;28;20950;-68
2022/03/23 07:16:04;;;;;;;8.33;7.13;;;13.40;73.70;;;;;;5035763;28;20181;-69
2022/03/23 07:18:30;;;;;;;8.03;7.23;;;14.10;72.20;;;;;;5036222;28;20697;-69
2022/03/23 07:20:56;;;;;;;9.00;7.13;;;14.70;66.40;;;;;;5036117;28;20493;-68
2022/03/23 07:23:21;;;;;;;9.47;7.73;;;15.10;65.40;;;;;;5035683;28;20496;-69
2022/03/23 07:25:47;;;;;;;9.40;8.03;;;15.60;63.30;;;;;;5035814;28;20186;-67
2022/03/23 07:28:13;;;;;;;8.67;7.77;;;15.80;62.00;;;;;;5035848;28;20159;-68
2022/03/23 07:30:40;;;;;;;9.60;8.40;;;16.00;63.30;;;;;;5035778;28;20392;-68
2022/03/23 07:33:06;;;;;;;12.57;9.80;;;16.30;61.20;;;;;;5035653;28;20186;-68
2022/03/23 07:35:32;;;;;;;9.40;8.40;;;16.30;59.50;;;;;;5035592;28;20932;-68
2022/03/23 07:37:57;;;;;;;10.90;9.13;;;16.20;59.30;;;;;;5036953;28;20402;-68
2022/03/23 07:40:28;;;;;;;10.37;8.60;;;16.10;59.70;;;;;;5052467;28;20181;-71
2022/03/23 07:42:53;;;;;;;10.70;7.67;;;16.10;59.80;;;;;;5042188;28;20174;-67
2022/03/23 07:45:19;;;;;;;11.00;9.30;;;16.20;59.60;;;;;;5039624;28;20773;-67
2022/03/23 07:47:45;;;;;;;12.53;9.10;;;16.40;59.60;;;;;;5035519;28;20590;-67
2022/03/23 07:50:11;;;;;;;11.90;9.53;;;16.60;58.90;;;;;;5044895;28;20177;-67
2022/03/23 07:52:36;;;;;;;10.90;9.07;;;17.00;58.70;;;;;;5035474;28;20179;-68
2022/03/23 07:55:03;;;;;;;14.00;8.40;;;17.00;57.40;;;;;;5041845;28;20907;-68
2022/03/23 07:57:29;;;;;;;16.13;9.63;;;17.20;57.90;;;;;;5037649;28;20177;-69
2022/03/23 07:59:57;;;;;;;14.17;9.60;;;17.70;57.50;;;;;;5040212;28;20873;-69
2022/03/23 08:02:24;;;;;;;11.30;10.07;;;18.10;56.30;;;;;;5041214;28;20857;-67
2022/03/23 08:04:50;;;;;;;12.57;9.60;;;18.70;56.30;;;;;;5035776;28;20491;-68
2022/03/23 08:07:16;;;;;;;15.73;11.07;;;19.30;56.00;;;;;;5035990;28;20387;-69
2022/03/23 08:09:42;;;;;;;10.77;9.50;;;19.90;55.70;;;;;;5042582;28;20415;-68
2022/03/23 08:12:07;;;;;;;13.00;10.60;;;20.40;53.80;;;;;;5055288;28;20172;-69
2022/03/23 08:14:33;;;;;;;15.07;10.13;;;20.40;53.00;;;;;;5039633;28;20215;-66
2022/03/23 08:16:59;;;;;;;11.03;9.93;;;20.60;53.20;;;;;;5040378;28;20304;-66
2022/03/23 08:19:25;;;;;;;12.10;10.80;;;20.90;53.60;;;;;;5055027;28;20462;-69
2022/03/23 08:21:51;;;;;;;12.87;10.17;;;21.20;52.90;;;;;;5053354;28;20688;-69
2022/03/23 08:24:17;;;;;;;13.63;11.07;;;21.40;51.50;;;;;;5045094;28;20219;-66
2022/03/23 08:26:43;;;;;;;11.37;10.20;;;21.70;51.50;;;;;;5043891;28;20495;-66
2022/03/23 08:29:09;;;;;;;12.03;10.40;;;21.90;51.50;;;;;;5054915;28;20260;-67
2022/03/23 08:31:35;;;;;;;12.50;11.20;;;22.20;51.50;;;;;;5047263;28;20392;-68
2022/03/23 08:34:02;;;;;;;12.67;10.70;;;22.50;50.30;;;;;;5034322;28;20194;-68
2022/03/23 08:36:27;;;;;;;11.70;10.50;;;22.90;49.80;;;;;;5034610;28;20815;-69
2022/03/23 08:38:53;;;;;;;11.87;10.67;;;23.30;49.80;;;;;;5033597;28;20406;-69
2022/03/23 08:41:19;;;;;;;13.33;11.50;;;23.50;49.20;;;;;;5044142;28;20524;-68
2022/03/23 08:43:45;;;;;;;16.20;11.30;;;24.00;48.10;;;;;;5052458;28;20386;-68
2022/03/23 08:46:13;;;;;;;12.27;11.00;;;24.30;47.30;;;;;;5034399;28;20248;-68
2022/03/23 08:48:39;;;;;;;14.10;10.90;;;24.00;46.70;;;;;;5034205;28;20170;-68
2022/03/23 08:51:05;;;;;;;12.60;11.40;;;23.80;47.40;;;;;;5040652;28;20428;-68
2022/03/23 08:53:31;;;;;;;13.20;11.90;;;24.00;46.90;;;;;;5051844;28;20498;-68
2022/03/23 08:55:57;;;;;;;15.13;11.77;;;23.80;47.00;;;;;;5045353;28;20905;-69
2022/03/23 08:58:23;;;;;;;13.37;11.83;;;23.60;46.60;;;;;;5054100;28;20375;-68
2022/03/23 09:00:49;;;;;;;13.83;11.90;;;23.60;46.60;;;;;;5053872;28;20436;-67
2022/03/23 09:03:14;;;;;;;13.27;11.83;;;23.50;46.80;;;;;;5053446;28;20463;-68
2022/03/23 09:05:40;;;;;;;12.87;11.50;;;23.80;46.40;;;;;;5054074;28;20189;-67
2022/03/23 09:08:08;;;;;;;12.97;11.67;;;23.80;46.30;;;;;;5053939;28;20166;-69
2022/03/23 09:10:34;;;;;;;13.67;12.27;;;24.20;46.20;;;;;;5043538;28;20252;-69
2022/03/23 09:13:00;;;;;;;14.20;11.80;;;24.40;45.60;;;;;;5053926;28;20390;-71
2022/03/23 09:15:26;;;;;;;15.13;13.30;;;24.50;45.60;;;;;;5053449;28;20761;-67
2022/03/23 09:17:58;;;;;;;12.50;11.17;;;24.20;45.40;;;;;;5042856;28;20493;-68
2022/03/23 09:20:25;;;;;;;14.57;12.50;;;24.50;45.50;;;;;;5039279;28;20399;-70
2022/03/23 09:22:52;;;;;;;12.57;11.40;;;24.30;45.70;;;;;;5041432;28;20459;-68
2022/03/23 09:25:19;;;;;;;13.33;11.90;;;24.40;46.30;;;;;;5033585;28;20498;-67
2022/03/23 09:27:45;;;;;;;13.83;12.33;;;24.40;45.10;;;;;;5033974;28;20726;-69
2022/03/23 09:30:13;;;;;;;14.17;12.70;;;24.80;45.20;;;;;;5033856;28;20485;-68
2022/03/23 09:32:39;;;;;;;12.20;11.00;;;25.00;44.70;;;;;;5033671;28;20637;-69
2022/03/23 09:35:06;;;;;;;15.20;11.70;;;24.80;44.10;;;;;;5033152;28;20807;-68
2022/03/23 09:37:47;;;;;;;13.87;12.47;;;25.30;43.90;;;;;;5033564;28;20409;-68
2022/03/23 09:40:20;;;;;;;13.40;11.97;;;25.70;44.20;;;;;;5033729;28;20387;-67
2022/03/23 09:42:47;;;;;;;12.50;11.13;;;25.90;43.90;;;;;;5033410;28;20986;-70
2022/03/23 09:47:59;;;;;;;13.37;11.97;;;25.90;44.00;;;;;;5033905;28;20422;-70
2022/03/23 09:50:33;;;;;;;11.97;10.80;;;25.70;42.20;;;;;;5033429;28;20406;-69
2022/03/23 09:52:59;;;;;;;13.07;11.77;;;26.20;42.30;;;;;;5033068;28;20412;-67
2022/03/23 09:55:26;;;;;;;12.10;10.80;;;26.70;41.80;;;;;;5031663;28;20422;-68
2022/03/23 09:57:55;;;;;;;12.27;11.10;;;27.20;41.70;;;;;;5033339;28;21001;-67
2022/03/23 10:00:22;;;;;;;12.23;10.97;;;27.90;40.20;;;;;;5033536;28;20496;-70
2022/03/23 10:02:56;;;;;;;12.23;11.13;;;28.40;39.00;;;;;;5032917;28;20464;-70
2022/03/23 10:05:53;;;;;;;12.57;11.43;;;28.60;38.40;;;;;;5032834;28;20425;-68
2022/03/23 10:08:43;;;;;;;12.30;11.00;;;28.60;37.70;;;;;;5033099;28;20492;-68
2022/03/23 10:11:39;;;;;;;11.97;10.77;;;28.10;37.80;;;;;;5033313;28;20411;-69
2022/03/23 10:14:29;;;;;;;10.13;9.33;;;27.80;37.50;;;;;;5032907;28;20387;-67
2022/03/23 10:17:28;;;;;;;11.97;10.97;;;27.40;36.90;;;;;;5033239;28;20407;-69
2022/03/23 10:19:55;;;;;;;12.30;11.10;;;26.90;36.90;;;;;;5033665;28;20742;-66
2022/03/23 10:22:26;;;;;;;11.60;10.03;;;26.60;37.70;;;;;;5034067;28;20750;-67
2022/03/23 10:24:52;;;;;;;11.93;10.50;;;26.90;37.60;;;;;;5035637;28;20411;-68
2022/03/23 10:27:20;;;;;;;13.30;11.73;;;26.60;38.50;;;;;;5035785;28;20399;-69
2022/03/23 10:29:48;;;;;;;10.93;9.83;;;26.40;38.20;;;;;;5037172;28;20216;-66
2022/03/23 10:32:14;;;;;;;10.97;9.87;;;26.30;38.70;;;;;;5037080;28;20401;-67
2022/03/23 10:34:52;;;;;;;12.27;11.07;;;26.50;39.00;;;;;;5036350;28;20903;-68
2022/03/23 10:37:29;;;;;;;11.20;10.00;;;26.70;38.80;;;;;;5035918;28;20375;-68
2022/03/23 10:40:13;;;;;;;12.30;11.00;;;26.80;38.80;;;;;;5035568;28;20376;-67
2022/03/23 10:42:41;;;;;;;12.57;11.37;;;26.70;38.60;;;;;;5035797;28;20386;-70
2022/03/23 10:45:11;;;;;;;11.37;10.27;;;26.40;38.50;;;;;;5036331;28;20464;-68
2022/03/23 10:47:41;;;;;;;12.00;10.90;;;25.80;38.90;;;;;;5036733;28;20406;-68
2022/03/23 10:50:21;;;;;;;10.47;9.37;;;25.60;39.20;;;;;;5035708;28;20445;-67
2022/03/23 10:53:09;;;;;;;11.00;9.50;;;25.70;39.10;;;;;;5036542;28;20757;-69
2022/03/23 10:55:46;;;;;;;11.60;10.50;;;26.00;39.00;;;;;;5036116;28;20443;-69
2022/03/23 10:58:25;;;;;;;9.87;8.87;;;26.40;38.50;;;;;;5036624;28;20411;-69
2022/03/23 11:00:55;;;;;;;11.70;9.30;;;26.40;37.60;;;;;;5035334;28;20478;-69
2022/03/23 11:03:38;;;;;;;11.93;10.70;;;26.40;37.80;;;;;;5035867;28;20543;-69
2022/03/23 11:06:05;;;;;;;13.23;9.07;;;26.60;38.10;;;;;;5036012;28;20403;-69
2022/03/23 11:08:31;;;;;;;10.80;9.70;;;26.70;38.50;;;;;;5036294;28;20375;-67
2022/03/23 11:16:36;;;;;;;10.07;9.07;;;25.40;36.60;;;;;;5036492;28;20372;-68
2022/03/23 11:19:15;;;;;;;10.77;8.17;;;24.30;36.90;;;;;;5036203;28;20405;-69
2022/03/23 11:22:09;;;;;;;9.47;8.20;;;23.40;37.30;;;;;;5036070;28;20956;-69
2022/03/23 11:24:45;;;;;;;8.60;7.10;;;22.60;37.60;;;;;;5035458;28;20456;-68
2022/03/23 11:27:13;;;;;;;9.20;8.17;;;21.70;38.80;;;;;;5034867;28;20440;-68
2022/03/23 11:29:39;;;;;;;8.73;5.70;;;21.10;38.70;;;;;;5036109;28;20427;-69
2022/03/23 11:32:16;;;;;;;11.13;7.80;;;20.50;38.90;;;;;;5034548;28;20419;-69
2022/03/23 11:34:48;;;;;;;8.57;6.83;;;20.10;39.20;;;;;;5034767;28;20425;-68
2022/03/23 11:37:16;;;;;;;14.93;7.33;;;19.70;40.70;;;;;;5035987;28;20432;-68
2022/03/23 11:39:43;;;;;;;9.00;7.63;;;19.50;39.90;;;;;;5035690;28;20473;-67
2022/03/23 11:42:11;;;;;;;12.23;7.73;;;19.50;39.70;;;;;;5035526;28;20384;-70
2022/03/23 11:44:37;;;;;;;8.17;7.40;;;19.30;41.80;;;;;;5035328;28;20461;-68
2022/03/23 11:47:07;;;;;;;8.87;5.90;;;19.10;40.60;;;;;;5035552;28;20484;-67
2022/03/23 11:49:49;;;;;;;9.30;7.37;;;18.90;41.30;;;;;;5037672;28;20177;-67
2022/03/23 11:52:39;;;;;;;7.77;6.43;;;18.70;41.00;;;;;;5044504;28;20415;-66
2022/03/23 11:58:02;;;;;;;9.53;7.53;;;18.60;41.30;;;;;;5041231;28;20400;-66
2022/03/23 12:00:37;;;;;;;7.63;6.83;;;18.60;41.50;;;;;;5043468;28;20440;-66
2022/03/23 12:03:03;;;;;;;10.30;7.00;;;18.50;41.70;;;;;;5040808;28;20459;-66
2022/03/23 12:05:35;;;;;;;10.33;7.70;;;18.30;41.80;;;;;;5043289;28;20429;-66
2022/03/23 12:08:01;;;;;;;9.80;8.80;;;18.30;41.70;;;;;;5040310;28;20893;-66
2022/03/23 12:10:32;;;;;;;8.00;7.17;;;18.30;42.40;;;;;;5043080;28;20447;-66
2022/03/23 12:13:16;;;;;;;8.70;7.37;;;18.20;41.90;;;;;;5039321;28;20887;-68
2022/03/23 12:16:01;;;;;;;8.00;7.30;;;18.20;42.50;;;;;;5037990;28;20434;-67
2022/03/23 12:19:00;;;;;;;8.87;7.30;;;18.30;41.90;;;;;;5044029;28;20402;-67
2022/03/23 12:21:54;;;;;;;7.60;5.67;;;18.20;42.30;;;;;;5043749;28;20414;-68
2022/03/23 12:24:43;;;;;;;6.93;5.97;;;18.30;42.90;;;;;;5040603;28;20454;-69
2022/03/23 12:27:21;;;;;;;9.07;6.57;;;18.40;42.80;;;;;;5043717;28;20428;-68
2022/03/23 12:29:49;;;;;;;7.47;5.90;;;18.50;42.60;;;;;;5043967;28;20397;-67
2022/03/23 12:32:16;;;;;;;7.10;6.40;;;18.50;42.80;;;;;;5036815;28;20767;-67
2022/03/23 12:34:51;;;;;;;8.90;6.73;;;18.50;42.80;;;;;;5032739;28;20434;-69
2022/03/23 12:37:19;;;;;;;8.03;7.10;;;18.60;42.50;;;;;;5034707;28;20454;-66
2022/03/23 12:39:53;;;;;;;8.37;6.70;;;18.60;42.20;;;;;;5034390;28;20410;-68
2022/03/23 12:42:26;;;;;;;7.57;6.77;;;18.60;42.90;;;;;;5034539;28;20803;-69
2022/03/23 12:45:19;;;;;;;8.30;7.40;;;18.60;42.50;;;;;;5033271;28;20488;-70
2022/03/23 12:47:56;;;;;;;11.27;7.27;;;18.60;42.10;;;;;;5032308;28;20437;-68
2022/03/23 12:59:17;;;;;;;7.97;6.27;;;18.70;42.50;;;;;;5032459;28;20414;-69
2022/03/23 13:01:54;;;;;;;9.37;6.70;;;18.70;42.00;;;;;;5032040;28;20540;-69
2022/03/23 13:04:44;;;;;;;7.17;6.13;;;18.60;40.70;;;;;;5031362;28;20465;-67
2022/03/23 13:07:28;;;;;;;7.30;6.60;;;18.60;40.50;;;;;;5015264;28;20430;-68
2022/03/23 13:10:24;;;;;;;7.50;6.00;;;18.50;40.80;;;;;;5031684;28;20406;-67
2022/03/23 13:12:54;;;;;;;6.70;5.93;;;18.50;41.10;;;;;;5031119;28;20417;-68
2022/03/23 13:15:23;;;;;;;10.67;6.87;;;18.60;42.60;;;;;;5031497;28;20436;-70
2022/03/23 13:17:56;;;;;;;9.27;6.77;;;18.60;43.50;;;;;;5031805;28;21021;-69
2022/03/23 13:20:25;;;;;;;7.43;6.73;;;18.60;42.70;;;;;;5032128;28;20187;-69
2022/03/23 13:22:53;;;;;;;11.37;7.77;;;18.60;42.30;;;;;;5031589;28;20481;-69
2022/03/23 13:25:19;;;;;;;9.70;6.57;;;18.60;42.90;;;;;;5026261;28;20470;-69
2022/03/23 13:27:46;;;;;;;7.83;6.70;;;18.60;42.30;;;;;;5033625;28;20775;-70